TOM1GA LGZA-EGNT
Flight info
| Callsign | TOM1GA |
|---|---|
| Flight time | 3h 36m |
| Altitude | 36000 |
| Route | OSDES UY302 GARTA UV60 YNN UL604 DIMIS DCT ADDER DCT PETAK DCT GACMO DCT EMKES DCT KOMAR DCT PIXAL DCT PODET DCT ABTAN DCT SIMBA DCT STAUB DCT MOOCE/N0422F240 L604 ANELA/N0465F380 L604 SULUS DCT GASKA DCT MASEK DCT MAPOX DCT ABILU DCT SOGPO DCT BERGI L602 NALAX L46 RIMTO |
| Aircraft | B738/M-SDE2E3FGHIRWXY/LB1 |
Departure
| Time | 2026-05-08 13:50 |
|---|---|
| Airport | Zakynthos International Airport Dionysios Solomos (LGZA) |
Arrival
| Time | 2026-05-08 17:26 |
|---|---|
| Airport | Newcastle International Airport (EGNT) |
| Time | Latitude | Longitude | Altitude | Speed | Heading |
|---|---|---|---|---|---|
| 2026-05-08 13:27 | 37.75290 | 20.88565 | 19 ft | 0 kts | 74° |
| 2026-05-08 13:35 | 37.75290 | 20.88564 | 19 ft | 0 kts | 74° |
| 2026-05-08 13:42 | 37.75287 | 20.88549 | 19 ft | 3 kts | 75° |
| 2026-05-08 13:42 | 37.75283 | 20.88533 | 23 ft | 3 kts | 75° |
| 2026-05-08 13:42 | 37.75278 | 20.88508 | 22 ft | 3 kts | 66° |
| 2026-05-08 13:42 | 37.75269 | 20.88489 | 24 ft | 3 kts | 32° |
| 2026-05-08 13:43 | 37.75259 | 20.88484 | 23 ft | 0 kts | 344° |
| 2026-05-08 13:46 | 37.75271 | 20.88480 | 21 ft | 3 kts | 344° |
| 2026-05-08 13:46 | 37.75333 | 20.88457 | 19 ft | 12 kts | 343° |
| 2026-05-08 13:46 | 37.75413 | 20.88426 | 19 ft | 12 kts | 343° |
| 2026-05-08 13:47 | 37.75472 | 20.88367 | 20 ft | 12 kts | 288° |
| 2026-05-08 13:47 | 37.75514 | 20.88274 | 20 ft | 17 kts | 328° |
| 2026-05-08 13:47 | 37.75658 | 20.88215 | 22 ft | 24 kts | 343° |
| 2026-05-08 13:47 | 37.75820 | 20.88155 | 22 ft | 23 kts | 343° |
| 2026-05-08 13:48 | 37.75973 | 20.88096 | 20 ft | 23 kts | 340° |
| 2026-05-08 13:48 | 37.76053 | 20.88046 | 19 ft | 7 kts | 27° |
| 2026-05-08 13:48 | 37.76055 | 20.88069 | 19 ft | 2 kts | 153° |
| 2026-05-08 13:48 | 37.76037 | 20.88071 | 19 ft | 3 kts | 171° |
| 2026-05-08 13:49 | 37.76017 | 20.88080 | 19 ft | 3 kts | 161° |
| 2026-05-08 13:49 | 37.75984 | 20.88093 | 20 ft | 8 kts | 163° |
| 2026-05-08 13:49 | 37.75698 | 20.88200 | 22 ft | 83 kts | 163° |
| 2026-05-08 13:49 | 37.74901 | 20.88493 | 36 ft | 151 kts | 166° |
| 2026-05-08 13:50 | 37.73817 | 20.88889 | 676 ft | 170 kts | 164° |
| 2026-05-08 13:50 | 37.72685 | 20.89332 | 1712 ft | 166 kts | 166° |
| 2026-05-08 13:50 | 37.71575 | 20.89711 | 2627 ft | 173 kts | 170° |
| 2026-05-08 13:50 | 37.70337 | 20.90106 | 3180 ft | 196 kts | 172° |
| 2026-05-08 13:51 | 37.68976 | 20.90552 | 3712 ft | 207 kts | 172° |
| 2026-05-08 13:51 | 37.67550 | 20.91029 | 4363 ft | 215 kts | 172° |
| 2026-05-08 13:51 | 37.66073 | 20.91527 | 5023 ft | 222 kts | 173° |
| 2026-05-08 13:51 | 37.64576 | 20.92036 | 5826 ft | 222 kts | 173° |
| 2026-05-08 13:52 | 37.63078 | 20.92545 | 6582 ft | 225 kts | 172° |
| 2026-05-08 13:52 | 37.61528 | 20.93067 | 7144 ft | 238 kts | 172° |
| 2026-05-08 13:52 | 37.59893 | 20.93618 | 7866 ft | 246 kts | 172° |
| 2026-05-08 13:52 | 37.58229 | 20.94173 | 8699 ft | 249 kts | 176° |
| 2026-05-08 13:53 | 37.56510 | 20.94110 | 9042 ft | 257 kts | 207° |
| 2026-05-08 13:53 | 37.55084 | 20.92808 | 9709 ft | 255 kts | 236° |
| 2026-05-08 13:53 | 37.54336 | 20.90812 | 10459 ft | 259 kts | 259° |
| 2026-05-08 13:53 | 37.54364 | 20.88441 | 10693 ft | 289 kts | 281° |
| 2026-05-08 13:54 | 37.55249 | 20.86017 | 10898 ft | 322 kts | 301° |
| 2026-05-08 13:54 | 37.56968 | 20.83990 | 11061 ft | 359 kts | 323° |
| 2026-05-08 13:54 | 37.59448 | 20.82980 | 11390 ft | 393 kts | 349° |
| 2026-05-08 13:54 | 37.62228 | 20.83408 | 11998 ft | 416 kts | 13° |
| 2026-05-08 13:55 | 37.64907 | 20.84905 | 12720 ft | 424 kts | 20° |
| 2026-05-08 13:55 | 37.67625 | 20.86309 | 13458 ft | 421 kts | 13° |
| 2026-05-08 13:55 | 37.73325 | 20.88189 | 14571 ft | 427 kts | 6° |
| 2026-05-08 13:56 | 37.76253 | 20.88829 | 15147 ft | 425 kts | 359° |
| 2026-05-08 13:56 | 37.79167 | 20.89062 | 15724 ft | 426 kts | 355° |
| 2026-05-08 13:56 | 37.82141 | 20.89177 | 16264 ft | 429 kts | 354° |
| 2026-05-08 13:56 | 37.85143 | 20.89290 | 16809 ft | 432 kts | 355° |
| 2026-05-08 13:57 | 37.88162 | 20.89429 | 17349 ft | 436 kts | 355° |
| 2026-05-08 13:57 | 37.91206 | 20.89594 | 17899 ft | 440 kts | 355° |
| 2026-05-08 13:57 | 37.94286 | 20.89781 | 18349 ft | 445 kts | 355° |
| 2026-05-08 13:57 | 37.97395 | 20.89982 | 18796 ft | 448 kts | 355° |
| 2026-05-08 13:58 | 38.00467 | 20.90189 | 19271 ft | 449 kts | 355° |
| 2026-05-08 13:58 | 38.03590 | 20.90402 | 19739 ft | 451 kts | 355° |
| 2026-05-08 13:58 | 38.06732 | 20.90615 | 20197 ft | 453 kts | 355° |
| 2026-05-08 13:58 | 38.09849 | 20.90825 | 20653 ft | 455 kts | 355° |
| 2026-05-08 13:59 | 38.13018 | 20.91039 | 21127 ft | 457 kts | 355° |
| 2026-05-08 13:59 | 38.16201 | 20.91252 | 21523 ft | 460 kts | 355° |
| 2026-05-08 13:59 | 38.19411 | 20.91466 | 21908 ft | 463 kts | 355° |
| 2026-05-08 13:59 | 38.22644 | 20.91683 | 22347 ft | 465 kts | 355° |
| 2026-05-08 14:00 | 38.25880 | 20.91902 | 22802 ft | 466 kts | 355° |
| 2026-05-08 14:00 | 38.29124 | 20.92122 | 23240 ft | 467 kts | 355° |
| 2026-05-08 14:00 | 38.32378 | 20.92340 | 23594 ft | 470 kts | 355° |
| 2026-05-08 14:00 | 38.35662 | 20.92561 | 23906 ft | 473 kts | 354° |
| 2026-05-08 14:01 | 38.38961 | 20.92779 | 24164 ft | 476 kts | 354° |
| 2026-05-08 14:01 | 38.42287 | 20.92993 | 24472 ft | 478 kts | 354° |
| 2026-05-08 14:01 | 38.45608 | 20.93206 | 24794 ft | 479 kts | 354° |
| 2026-05-08 14:01 | 38.48905 | 20.93418 | 25093 ft | 481 kts | 354° |
| 2026-05-08 14:02 | 38.52250 | 20.93634 | 25384 ft | 483 kts | 354° |
| 2026-05-08 14:02 | 38.55609 | 20.93853 | 25782 ft | 483 kts | 353° |
| 2026-05-08 14:02 | 38.58961 | 20.94071 | 26178 ft | 482 kts | 353° |
| 2026-05-08 14:02 | 38.62306 | 20.94293 | 26591 ft | 481 kts | 353° |
| 2026-05-08 14:03 | 38.65649 | 20.94524 | 27061 ft | 480 kts | 353° |
| 2026-05-08 14:03 | 38.68977 | 20.94756 | 27551 ft | 478 kts | 353° |
| 2026-05-08 14:03 | 38.72286 | 20.94988 | 28066 ft | 475 kts | 353° |
| 2026-05-08 14:03 | 38.75584 | 20.95217 | 28647 ft | 473 kts | 353° |
| 2026-05-08 14:04 | 38.78869 | 20.95445 | 29144 ft | 472 kts | 353° |
| 2026-05-08 14:04 | 38.82150 | 20.95640 | 29630 ft | 470 kts | 353° |
| 2026-05-08 14:04 | 38.85415 | 20.95869 | 30138 ft | 470 kts | 353° |
| 2026-05-08 14:04 | 38.88678 | 20.96110 | 30575 ft | 468 kts | 353° |
| 2026-05-08 14:05 | 38.91922 | 20.96346 | 31022 ft | 466 kts | 353° |
| 2026-05-08 14:05 | 38.95147 | 20.96572 | 31450 ft | 464 kts | 353° |
| 2026-05-08 14:05 | 38.98370 | 20.96729 | 31904 ft | 458 kts | 348° |
| 2026-05-08 14:05 | 39.01473 | 20.96372 | 32252 ft | 446 kts | 341° |
| 2026-05-08 14:06 | 39.04525 | 20.95737 | 32638 ft | 444 kts | 340° |
| 2026-05-08 14:06 | 39.07528 | 20.95073 | 33033 ft | 442 kts | 340° |
| 2026-05-08 14:06 | 39.10599 | 20.94398 | 33410 ft | 442 kts | 340° |
| 2026-05-08 14:06 | 39.13633 | 20.93751 | 33759 ft | 442 kts | 341° |
| 2026-05-08 14:07 | 39.16625 | 20.93129 | 34099 ft | 442 kts | 341° |
| 2026-05-08 14:07 | 39.19665 | 20.92508 | 34403 ft | 441 kts | 341° |
| 2026-05-08 14:07 | 39.22699 | 20.91892 | 34654 ft | 443 kts | 342° |
| 2026-05-08 14:07 | 39.25761 | 20.91268 | 34779 ft | 447 kts | 342° |
| 2026-05-08 14:08 | 39.28842 | 20.90643 | 35065 ft | 446 kts | 342° |
| 2026-05-08 14:08 | 39.31904 | 20.90022 | 35425 ft | 444 kts | 342° |
| 2026-05-08 14:08 | 39.34964 | 20.89395 | 35727 ft | 444 kts | 342° |
| 2026-05-08 14:08 | 39.37984 | 20.88768 | 35982 ft | 446 kts | 342° |
| 2026-05-08 14:09 | 39.41095 | 20.88120 | 36001 ft | 449 kts | 342° |
| 2026-05-08 14:09 | 39.47224 | 20.86846 | 36041 ft | 449 kts | 343° |
| 2026-05-08 14:10 | 39.53394 | 20.85564 | 36044 ft | 448 kts | 343° |
| 2026-05-08 14:10 | 39.59550 | 20.84282 | 36045 ft | 448 kts | 343° |
| 2026-05-08 14:11 | 39.65713 | 20.82997 | 36074 ft | 447 kts | 344° |
| 2026-05-08 14:11 | 39.71722 | 20.81186 | 36048 ft | 437 kts | 331° |
| 2026-05-08 14:12 | 39.77174 | 20.77893 | 36051 ft | 435 kts | 328° |
| 2026-05-08 14:12 | 39.82650 | 20.74495 | 36029 ft | 436 kts | 329° |
| 2026-05-08 14:13 | 39.88152 | 20.71135 | 36034 ft | 437 kts | 329° |
| 2026-05-08 14:13 | 39.93671 | 20.67789 | 36014 ft | 438 kts | 330° |
| 2026-05-08 14:14 | 39.99199 | 20.64433 | 36001 ft | 438 kts | 330° |
| 2026-05-08 14:14 | 40.04707 | 20.61082 | 36010 ft | 438 kts | 330° |
| 2026-05-08 14:15 | 40.10225 | 20.57678 | 35991 ft | 438 kts | 329° |
| 2026-05-08 14:15 | 40.15704 | 20.54162 | 35985 ft | 439 kts | 329° |
| 2026-05-08 14:16 | 40.21152 | 20.50650 | 35995 ft | 439 kts | 329° |
| 2026-05-08 14:16 | 40.26647 | 20.47115 | 35986 ft | 440 kts | 329° |
| 2026-05-08 14:17 | 40.32150 | 20.43575 | 35986 ft | 441 kts | 330° |
| 2026-05-08 14:17 | 40.37671 | 20.40020 | 35961 ft | 443 kts | 330° |
| 2026-05-08 14:18 | 40.43209 | 20.36447 | 35982 ft | 444 kts | 330° |
| 2026-05-08 14:18 | 40.48760 | 20.32859 | 35956 ft | 445 kts | 330° |
| 2026-05-08 14:19 | 40.54280 | 20.29168 | 35971 ft | 444 kts | 328° |
| 2026-05-08 14:19 | 40.59672 | 20.25223 | 35967 ft | 446 kts | 330° |
| 2026-05-08 14:20 | 40.65284 | 20.21671 | 35958 ft | 448 kts | 332° |
| 2026-05-08 14:20 | 40.70930 | 20.18178 | 35963 ft | 449 kts | 332° |
| 2026-05-08 14:21 | 40.76573 | 20.14620 | 35951 ft | 449 kts | 331° |
| 2026-05-08 14:21 | 40.82188 | 20.11030 | 35966 ft | 448 kts | 331° |
| 2026-05-08 14:22 | 40.87805 | 20.07418 | 35973 ft | 450 kts | 331° |
| 2026-05-08 14:22 | 40.93410 | 20.03806 | 35951 ft | 451 kts | 331° |
| 2026-05-08 14:23 | 40.99054 | 20.00163 | 35953 ft | 451 kts | 331° |
| 2026-05-08 14:23 | 41.04553 | 19.96610 | 35960 ft | 450 kts | 331° |
| 2026-05-08 14:24 | 41.10175 | 19.92969 | 35962 ft | 449 kts | 331° |
| 2026-05-08 14:24 | 41.15779 | 19.89333 | 35980 ft | 448 kts | 331° |
| 2026-05-08 14:25 | 41.21375 | 19.85695 | 35974 ft | 448 kts | 331° |
| 2026-05-08 14:25 | 41.26960 | 19.82058 | 35983 ft | 447 kts | 331° |
| 2026-05-08 14:26 | 41.32510 | 19.78435 | 35994 ft | 448 kts | 331° |
| 2026-05-08 14:26 | 41.38105 | 19.74776 | 35991 ft | 448 kts | 331° |
| 2026-05-08 14:27 | 41.43703 | 19.71109 | 35996 ft | 448 kts | 331° |
| 2026-05-08 14:27 | 41.49298 | 19.67437 | 35978 ft | 448 kts | 331° |
| 2026-05-08 14:28 | 41.54902 | 19.63751 | 35981 ft | 450 kts | 331° |
| 2026-05-08 14:28 | 41.60522 | 19.60048 | 35976 ft | 451 kts | 331° |
| 2026-05-08 14:29 | 41.66154 | 19.56330 | 35976 ft | 452 kts | 331° |
| 2026-05-08 14:29 | 41.70848 | 19.53225 | 35977 ft | 453 kts | 331° |
| 2026-05-08 14:30 | 41.77426 | 19.48866 | 35971 ft | 453 kts | 331° |
| 2026-05-08 14:30 | 41.82161 | 19.45723 | 35978 ft | 453 kts | 331° |
| 2026-05-08 14:31 | 41.87808 | 19.41966 | 35974 ft | 452 kts | 331° |
| 2026-05-08 14:31 | 41.93411 | 19.38232 | 35973 ft | 452 kts | 331° |
| 2026-05-08 14:32 | 42.01835 | 19.32604 | 35970 ft | 450 kts | 331° |
| 2026-05-08 14:32 | 42.07431 | 19.28856 | 35968 ft | 449 kts | 331° |
| 2026-05-08 14:33 | 42.13017 | 19.25107 | 35962 ft | 448 kts | 331° |
| 2026-05-08 14:33 | 42.18554 | 19.21383 | 35975 ft | 447 kts | 331° |
| 2026-05-08 14:34 | 42.24117 | 19.17634 | 35970 ft | 447 kts | 330° |
| 2026-05-08 14:34 | 42.29671 | 19.13884 | 35964 ft | 447 kts | 330° |
| 2026-05-08 14:35 | 42.35238 | 19.10117 | 35971 ft | 447 kts | 330° |
| 2026-05-08 14:35 | 42.40808 | 19.06341 | 35972 ft | 447 kts | 330° |
| 2026-05-08 14:36 | 42.46379 | 19.02557 | 35973 ft | 449 kts | 330° |
| 2026-05-08 14:36 | 42.51868 | 18.98821 | 35982 ft | 450 kts | 330° |
| 2026-05-08 14:37 | 42.57438 | 18.95023 | 35976 ft | 451 kts | 330° |
| 2026-05-08 14:37 | 42.63050 | 18.91188 | 35989 ft | 451 kts | 330° |
| 2026-05-08 14:38 | 42.68684 | 18.87331 | 35991 ft | 453 kts | 330° |
| 2026-05-08 14:38 | 42.74331 | 18.83456 | 36165 ft | 456 kts | 330° |
| 2026-05-08 14:39 | 42.77159 | 18.81512 | 36505 ft | 454 kts | 330° |
| 2026-05-08 14:39 | 42.79929 | 18.79609 | 36916 ft | 450 kts | 330° |
| 2026-05-08 14:39 | 42.82707 | 18.77697 | 37361 ft | 446 kts | 330° |
| 2026-05-08 14:39 | 42.85476 | 18.75789 | 37646 ft | 446 kts | 330° |
| 2026-05-08 14:40 | 42.91063 | 18.71928 | 37788 ft | 454 kts | 329° |
| 2026-05-08 14:40 | 42.93887 | 18.69974 | 37927 ft | 454 kts | 329° |
| 2026-05-08 14:40 | 42.96712 | 18.68020 | 37988 ft | 454 kts | 329° |
| 2026-05-08 14:41 | 43.02333 | 18.64124 | 37994 ft | 457 kts | 329° |
| 2026-05-08 14:41 | 43.08023 | 18.60171 | 38019 ft | 459 kts | 329° |
| 2026-05-08 14:42 | 43.13686 | 18.56214 | 38014 ft | 459 kts | 328° |
| 2026-05-08 14:42 | 43.18927 | 18.51289 | 38007 ft | 455 kts | 319° |
| 2026-05-08 14:43 | 43.23945 | 18.45958 | 38010 ft | 455 kts | 319° |
| 2026-05-08 14:43 | 43.28955 | 18.40666 | 38030 ft | 455 kts | 319° |
| 2026-05-08 14:44 | 43.33985 | 18.35417 | 38017 ft | 453 kts | 320° |
| 2026-05-08 14:44 | 43.38983 | 18.30217 | 38008 ft | 452 kts | 320° |
| 2026-05-08 14:45 | 43.43988 | 18.25001 | 37996 ft | 451 kts | 320° |
| 2026-05-08 14:45 | 43.48979 | 18.19785 | 38002 ft | 450 kts | 319° |
| 2026-05-08 14:46 | 43.53966 | 18.14562 | 38022 ft | 450 kts | 319° |
| 2026-05-08 14:46 | 43.58961 | 18.09317 | 38016 ft | 450 kts | 319° |
| 2026-05-08 14:47 | 43.63937 | 18.04082 | 38027 ft | 450 kts | 319° |
| 2026-05-08 14:47 | 43.68834 | 17.98919 | 38008 ft | 450 kts | 319° |
| 2026-05-08 14:48 | 43.73806 | 17.93666 | 38017 ft | 449 kts | 319° |
| 2026-05-08 14:48 | 43.78773 | 17.88407 | 38014 ft | 449 kts | 319° |
| 2026-05-08 14:49 | 43.83784 | 17.83276 | 38002 ft | 452 kts | 322° |
| 2026-05-08 14:49 | 43.89058 | 17.78523 | 38018 ft | 453 kts | 324° |
| 2026-05-08 14:50 | 43.94382 | 17.73832 | 38018 ft | 452 kts | 324° |
| 2026-05-08 14:50 | 43.99678 | 17.69100 | 38022 ft | 451 kts | 323° |
| 2026-05-08 14:51 | 44.04929 | 17.64355 | 38033 ft | 452 kts | 323° |
| 2026-05-08 14:51 | 44.10168 | 17.59599 | 38019 ft | 452 kts | 323° |
| 2026-05-08 14:52 | 44.18073 | 17.52403 | 38028 ft | 452 kts | 323° |
| 2026-05-08 14:53 | 44.23342 | 17.47596 | 38036 ft | 453 kts | 323° |
| 2026-05-08 14:53 | 44.28616 | 17.42773 | 38033 ft | 453 kts | 323° |
| 2026-05-08 14:54 | 44.33891 | 17.37940 | 38028 ft | 453 kts | 323° |
| 2026-05-08 14:54 | 44.39160 | 17.33100 | 38026 ft | 453 kts | 323° |
| 2026-05-08 14:55 | 44.44418 | 17.28262 | 38031 ft | 452 kts | 323° |
| 2026-05-08 14:55 | 44.49631 | 17.23453 | 38028 ft | 452 kts | 323° |
| 2026-05-08 14:56 | 44.54902 | 17.18581 | 38013 ft | 453 kts | 323° |
| 2026-05-08 14:56 | 44.60156 | 17.13713 | 38035 ft | 452 kts | 322° |
| 2026-05-08 14:57 | 44.65394 | 17.08850 | 38027 ft | 450 kts | 322° |
| 2026-05-08 14:57 | 44.70613 | 17.03994 | 38029 ft | 450 kts | 322° |
| 2026-05-08 14:58 | 44.75719 | 16.99231 | 38035 ft | 450 kts | 322° |
| 2026-05-08 14:58 | 44.80938 | 16.94353 | 38035 ft | 450 kts | 322° |
| 2026-05-08 14:59 | 44.86155 | 16.89466 | 38037 ft | 450 kts | 322° |
| 2026-05-08 14:59 | 44.93975 | 16.82121 | 38038 ft | 450 kts | 322° |
| 2026-05-08 15:00 | 44.99197 | 16.77203 | 38037 ft | 450 kts | 322° |
| 2026-05-08 15:00 | 45.04386 | 16.72305 | 38038 ft | 450 kts | 322° |
| 2026-05-08 15:01 | 45.09595 | 16.67375 | 38047 ft | 450 kts | 322° |
| 2026-05-08 15:01 | 45.14802 | 16.62438 | 38037 ft | 450 kts | 321° |
| 2026-05-08 15:02 | 45.20000 | 16.57498 | 38034 ft | 450 kts | 322° |
| 2026-05-08 15:02 | 45.25198 | 16.52541 | 38037 ft | 450 kts | 321° |
| 2026-05-08 15:03 | 45.30353 | 16.47598 | 38032 ft | 450 kts | 321° |
| 2026-05-08 15:03 | 45.35536 | 16.42614 | 38047 ft | 450 kts | 321° |
| 2026-05-08 15:04 | 45.40730 | 16.37609 | 38040 ft | 450 kts | 321° |
| 2026-05-08 15:04 | 45.45922 | 16.32596 | 38032 ft | 450 kts | 321° |
| 2026-05-08 15:05 | 45.51108 | 16.27578 | 38025 ft | 450 kts | 321° |
| 2026-05-08 15:05 | 45.56288 | 16.22554 | 38026 ft | 450 kts | 321° |
| 2026-05-08 15:06 | 45.61455 | 16.17532 | 38039 ft | 449 kts | 321° |
| 2026-05-08 15:06 | 45.66584 | 16.12534 | 38026 ft | 449 kts | 321° |
| 2026-05-08 15:07 | 45.71762 | 16.07478 | 38021 ft | 449 kts | 321° |
| 2026-05-08 15:07 | 45.76910 | 16.02439 | 38020 ft | 448 kts | 321° |
| 2026-05-08 15:08 | 45.81089 | 15.98341 | 38020 ft | 448 kts | 321° |
| 2026-05-08 15:08 | 45.87107 | 15.92425 | 38040 ft | 449 kts | 321° |
| 2026-05-08 15:09 | 45.92259 | 15.87348 | 38026 ft | 449 kts | 321° |
| 2026-05-08 15:09 | 45.97374 | 15.82296 | 38023 ft | 449 kts | 321° |
| 2026-05-08 15:10 | 46.02505 | 15.77217 | 38031 ft | 449 kts | 321° |
| 2026-05-08 15:10 | 46.07652 | 15.72109 | 38022 ft | 448 kts | 321° |
| 2026-05-08 15:11 | 46.12781 | 15.67008 | 38041 ft | 449 kts | 320° |
| 2026-05-08 15:11 | 46.17905 | 15.61844 | 38025 ft | 448 kts | 318° |
| 2026-05-08 15:12 | 46.22769 | 15.56260 | 38037 ft | 446 kts | 315° |
| 2026-05-08 15:12 | 46.27540 | 15.50531 | 38034 ft | 446 kts | 315° |
| 2026-05-08 15:13 | 46.32326 | 15.44814 | 38032 ft | 446 kts | 316° |
| 2026-05-08 15:13 | 46.37115 | 15.39134 | 38048 ft | 446 kts | 316° |
| 2026-05-08 15:14 | 46.41887 | 15.33482 | 38044 ft | 445 kts | 316° |
| 2026-05-08 15:14 | 46.46680 | 15.27793 | 38038 ft | 445 kts | 316° |
| 2026-05-08 15:15 | 46.50698 | 15.23013 | 38032 ft | 445 kts | 316° |
| 2026-05-08 15:15 | 46.55446 | 15.17352 | 38050 ft | 444 kts | 316° |
| 2026-05-08 15:16 | 46.60216 | 15.11650 | 38060 ft | 444 kts | 316° |
| 2026-05-08 15:16 | 46.64996 | 15.05922 | 38056 ft | 445 kts | 315° |
| 2026-05-08 15:17 | 46.69778 | 15.00179 | 38042 ft | 445 kts | 315° |
| 2026-05-08 15:17 | 46.74438 | 14.94569 | 38050 ft | 446 kts | 315° |
| 2026-05-08 15:18 | 46.79225 | 14.88791 | 38045 ft | 447 kts | 315° |
| 2026-05-08 15:18 | 46.84023 | 14.82987 | 38063 ft | 448 kts | 315° |
| 2026-05-08 15:19 | 46.88796 | 14.77202 | 38056 ft | 448 kts | 315° |
| 2026-05-08 15:19 | 46.93592 | 14.71372 | 38045 ft | 448 kts | 315° |
| 2026-05-08 15:20 | 46.98373 | 14.65549 | 38049 ft | 446 kts | 315° |
| 2026-05-08 15:20 | 47.03124 | 14.59746 | 38038 ft | 445 kts | 315° |
| 2026-05-08 15:21 | 47.07866 | 14.53940 | 38054 ft | 445 kts | 315° |
| 2026-05-08 15:21 | 47.12611 | 14.48098 | 38060 ft | 445 kts | 315° |
| 2026-05-08 15:22 | 47.17273 | 14.42116 | 38053 ft | 444 kts | 314° |
| 2026-05-08 15:22 | 47.21893 | 14.36098 | 38060 ft | 443 kts | 314° |
| 2026-05-08 15:23 | 47.26514 | 14.30081 | 38075 ft | 444 kts | 314° |
| 2026-05-08 15:23 | 47.31122 | 14.24087 | 38064 ft | 445 kts | 314° |
| 2026-05-08 15:24 | 47.35760 | 14.18048 | 38069 ft | 445 kts | 314° |
| 2026-05-08 15:24 | 47.40402 | 14.11990 | 38059 ft | 445 kts | 314° |
| 2026-05-08 15:25 | 47.45020 | 14.05950 | 38060 ft | 441 kts | 314° |
| 2026-05-08 15:25 | 47.49600 | 13.99942 | 38056 ft | 442 kts | 314° |
| 2026-05-08 15:26 | 47.54124 | 13.93991 | 38053 ft | 442 kts | 314° |
| 2026-05-08 15:26 | 47.58696 | 13.87963 | 38066 ft | 443 kts | 314° |
| 2026-05-08 15:27 | 47.63306 | 13.81873 | 38052 ft | 444 kts | 314° |
| 2026-05-08 15:27 | 47.67915 | 13.75766 | 38062 ft | 444 kts | 314° |
| 2026-05-08 15:28 | 47.72530 | 13.69637 | 38049 ft | 445 kts | 314° |
| 2026-05-08 15:28 | 47.77150 | 13.63488 | 38048 ft | 446 kts | 314° |
| 2026-05-08 15:29 | 47.81765 | 13.57329 | 38050 ft | 447 kts | 314° |
| 2026-05-08 15:29 | 47.86388 | 13.51143 | 38055 ft | 447 kts | 314° |
| 2026-05-08 15:30 | 47.91016 | 13.44937 | 38052 ft | 447 kts | 314° |
| 2026-05-08 15:30 | 47.95602 | 13.38771 | 38048 ft | 447 kts | 314° |
| 2026-05-08 15:31 | 48.00197 | 13.32577 | 38052 ft | 446 kts | 314° |
| 2026-05-08 15:31 | 48.04790 | 13.26370 | 38058 ft | 445 kts | 314° |
| 2026-05-08 15:32 | 48.09378 | 13.20153 | 38055 ft | 444 kts | 314° |
| 2026-05-08 15:32 | 48.13950 | 13.13942 | 38043 ft | 444 kts | 314° |
| 2026-05-08 15:33 | 48.18520 | 13.07721 | 38049 ft | 443 kts | 314° |
| 2026-05-08 15:33 | 48.23244 | 13.01781 | 38054 ft | 447 kts | 323° |
| 2026-05-08 15:34 | 48.28745 | 12.97734 | 38064 ft | 453 kts | 333° |
| 2026-05-08 15:34 | 48.34580 | 12.94127 | 38052 ft | 454 kts | 333° |
| 2026-05-08 15:35 | 48.40418 | 12.90469 | 38052 ft | 454 kts | 333° |
| 2026-05-08 15:35 | 48.46197 | 12.86777 | 38055 ft | 454 kts | 333° |
| 2026-05-08 15:36 | 48.52013 | 12.83031 | 38055 ft | 455 kts | 333° |
| 2026-05-08 15:36 | 48.57837 | 12.79272 | 38065 ft | 455 kts | 333° |
| 2026-05-08 15:37 | 48.63673 | 12.75498 | 38067 ft | 456 kts | 333° |
| 2026-05-08 15:37 | 48.69508 | 12.71715 | 38069 ft | 456 kts | 333° |
| 2026-05-08 15:38 | 48.75330 | 12.67933 | 38074 ft | 456 kts | 333° |
| 2026-05-08 15:38 | 48.80680 | 12.63121 | 38071 ft | 445 kts | 315° |
| 2026-05-08 15:39 | 48.85221 | 12.56773 | 38085 ft | 443 kts | 313° |
| 2026-05-08 15:39 | 48.89724 | 12.50348 | 38077 ft | 443 kts | 313° |
| 2026-05-08 15:40 | 48.94239 | 12.43961 | 38083 ft | 443 kts | 314° |
| 2026-05-08 15:40 | 48.98767 | 12.37588 | 38087 ft | 443 kts | 314° |
| 2026-05-08 15:41 | 49.03285 | 12.31226 | 38088 ft | 443 kts | 314° |
| 2026-05-08 15:41 | 49.07817 | 12.24828 | 38081 ft | 444 kts | 314° |
| 2026-05-08 15:42 | 49.12345 | 12.18416 | 38095 ft | 444 kts | 314° |
| 2026-05-08 15:42 | 49.16868 | 12.11995 | 38083 ft | 444 kts | 314° |
| 2026-05-08 15:43 | 49.21364 | 12.05595 | 38085 ft | 445 kts | 314° |
| 2026-05-08 15:43 | 49.25792 | 11.99275 | 38089 ft | 445 kts | 314° |
| 2026-05-08 15:44 | 49.30325 | 11.92789 | 38095 ft | 445 kts | 314° |
| 2026-05-08 15:44 | 49.34847 | 11.86302 | 38100 ft | 445 kts | 314° |
| 2026-05-08 15:45 | 49.39368 | 11.79798 | 38092 ft | 445 kts | 314° |
| 2026-05-08 15:45 | 49.43880 | 11.73290 | 38090 ft | 445 kts | 314° |
| 2026-05-08 15:46 | 49.48392 | 11.66764 | 38092 ft | 445 kts | 314° |
| 2026-05-08 15:46 | 49.52867 | 11.60275 | 38086 ft | 445 kts | 314° |
| 2026-05-08 15:47 | 49.57365 | 11.53727 | 38090 ft | 445 kts | 313° |
| 2026-05-08 15:47 | 49.61648 | 11.46877 | 38091 ft | 444 kts | 310° |
| 2026-05-08 15:48 | 49.68062 | 11.36552 | 38099 ft | 444 kts | 311° |
| 2026-05-08 15:49 | 49.72375 | 11.29717 | 38106 ft | 445 kts | 311° |
| 2026-05-08 15:49 | 49.76683 | 11.22855 | 38095 ft | 445 kts | 311° |
| 2026-05-08 15:50 | 49.80970 | 11.15964 | 38107 ft | 444 kts | 311° |
| 2026-05-08 15:50 | 49.85253 | 11.09047 | 38112 ft | 444 kts | 311° |
| 2026-05-08 15:51 | 49.89536 | 11.02120 | 38113 ft | 444 kts | 311° |
| 2026-05-08 15:51 | 49.93723 | 10.95341 | 38129 ft | 444 kts | 311° |
| 2026-05-08 15:52 | 49.97992 | 10.88411 | 38116 ft | 444 kts | 311° |
| 2026-05-08 15:52 | 50.02248 | 10.81480 | 38120 ft | 443 kts | 311° |
| 2026-05-08 15:53 | 50.06501 | 10.74540 | 38112 ft | 442 kts | 311° |
| 2026-05-08 15:53 | 50.10758 | 10.67623 | 38123 ft | 442 kts | 311° |
| 2026-05-08 15:54 | 50.15000 | 10.60787 | 38128 ft | 442 kts | 311° |
| 2026-05-08 15:54 | 50.19268 | 10.53885 | 38123 ft | 442 kts | 311° |
| 2026-05-08 15:55 | 50.23522 | 10.46976 | 38126 ft | 441 kts | 311° |
| 2026-05-08 15:55 | 50.29895 | 10.36585 | 38125 ft | 441 kts | 311° |
| 2026-05-08 15:56 | 50.34135 | 10.29650 | 38130 ft | 441 kts | 311° |
| 2026-05-08 15:56 | 50.38290 | 10.22586 | 38131 ft | 440 kts | 309° |
| 2026-05-08 15:57 | 50.42296 | 10.15329 | 38129 ft | 440 kts | 308° |
| 2026-05-08 15:57 | 50.46299 | 10.08064 | 38131 ft | 440 kts | 308° |
| 2026-05-08 15:58 | 50.50290 | 10.00860 | 38133 ft | 440 kts | 309° |
| 2026-05-08 15:58 | 50.54240 | 9.93736 | 38129 ft | 441 kts | 309° |
| 2026-05-08 15:59 | 50.58266 | 9.86455 | 38138 ft | 441 kts | 308° |
| 2026-05-08 15:59 | 50.62293 | 9.79150 | 38142 ft | 442 kts | 308° |
| 2026-05-08 16:00 | 50.66319 | 9.71823 | 38128 ft | 442 kts | 308° |
| 2026-05-08 16:00 | 50.70343 | 9.64482 | 38132 ft | 442 kts | 308° |
| 2026-05-08 16:01 | 50.74339 | 9.57132 | 38131 ft | 442 kts | 308° |
| 2026-05-08 16:01 | 50.77604 | 9.50902 | 38131 ft | 442 kts | 307° |
| 2026-05-08 16:02 | 50.81496 | 9.43394 | 38139 ft | 441 kts | 307° |
| 2026-05-08 16:02 | 50.85396 | 9.35872 | 38132 ft | 442 kts | 307° |
| 2026-05-08 16:03 | 50.89295 | 9.28353 | 38126 ft | 442 kts | 307° |
| 2026-05-08 16:03 | 50.93188 | 9.20830 | 38129 ft | 441 kts | 307° |
| 2026-05-08 16:04 | 50.97078 | 9.13290 | 38127 ft | 441 kts | 307° |
| 2026-05-08 16:04 | 51.00948 | 9.05766 | 38133 ft | 441 kts | 307° |
| 2026-05-08 16:05 | 51.04712 | 8.98426 | 38132 ft | 440 kts | 307° |
| 2026-05-08 16:05 | 51.08579 | 8.90864 | 38128 ft | 440 kts | 307° |
| 2026-05-08 16:06 | 51.12439 | 8.83290 | 38129 ft | 439 kts | 306° |
| 2026-05-08 16:06 | 51.15592 | 8.75035 | 38132 ft | 436 kts | 295° |
| 2026-05-08 16:07 | 51.18334 | 8.66411 | 38121 ft | 435 kts | 295° |
| 2026-05-08 16:07 | 51.21075 | 8.57815 | 38129 ft | 435 kts | 295° |
| 2026-05-08 16:08 | 51.23837 | 8.49226 | 38108 ft | 436 kts | 295° |
| 2026-05-08 16:08 | 51.26608 | 8.40618 | 38116 ft | 435 kts | 295° |
| 2026-05-08 16:09 | 51.29372 | 8.32001 | 38127 ft | 436 kts | 295° |
| 2026-05-08 16:09 | 51.32128 | 8.23378 | 38122 ft | 436 kts | 295° |
| 2026-05-08 16:10 | 51.34865 | 8.14780 | 38125 ft | 436 kts | 295° |
| 2026-05-08 16:10 | 51.37612 | 8.06122 | 38121 ft | 436 kts | 295° |
| 2026-05-08 16:11 | 51.40299 | 7.97629 | 38117 ft | 436 kts | 295° |
| 2026-05-08 16:11 | 51.43107 | 7.88982 | 38109 ft | 437 kts | 296° |
| 2026-05-08 16:12 | 51.46013 | 7.80426 | 38111 ft | 437 kts | 297° |
| 2026-05-08 16:12 | 51.48915 | 7.71861 | 38101 ft | 437 kts | 296° |
| 2026-05-08 16:13 | 51.51803 | 7.63259 | 38105 ft | 437 kts | 296° |
| 2026-05-08 16:13 | 51.54656 | 7.54701 | 38107 ft | 437 kts | 296° |
| 2026-05-08 16:14 | 51.57521 | 7.46073 | 38136 ft | 438 kts | 296° |
| 2026-05-08 16:14 | 51.60380 | 7.37435 | 38134 ft | 438 kts | 296° |
| 2026-05-08 16:15 | 51.63238 | 7.28769 | 38123 ft | 438 kts | 296° |
| 2026-05-08 16:15 | 51.66087 | 7.20101 | 38130 ft | 438 kts | 296° |
| 2026-05-08 16:16 | 51.68931 | 7.11416 | 38123 ft | 438 kts | 296° |
| 2026-05-08 16:16 | 51.71767 | 7.02727 | 38123 ft | 438 kts | 296° |
| 2026-05-08 16:17 | 51.74059 | 6.95686 | 38120 ft | 437 kts | 296° |
| 2026-05-08 16:17 | 51.77358 | 6.85509 | 38118 ft | 437 kts | 296° |
| 2026-05-08 16:18 | 51.80166 | 6.76814 | 38114 ft | 437 kts | 296° |
| 2026-05-08 16:18 | 51.82953 | 6.68155 | 38116 ft | 436 kts | 296° |
| 2026-05-08 16:19 | 51.85749 | 6.59436 | 38115 ft | 436 kts | 296° |
| 2026-05-08 16:19 | 51.88533 | 6.50722 | 38115 ft | 436 kts | 296° |
| 2026-05-08 16:20 | 51.91313 | 6.41992 | 38108 ft | 436 kts | 295° |
| 2026-05-08 16:20 | 51.94088 | 6.33249 | 38114 ft | 436 kts | 296° |
| 2026-05-08 16:21 | 51.96884 | 6.24538 | 38101 ft | 436 kts | 299° |
| 2026-05-08 16:21 | 52.00232 | 6.16431 | 38107 ft | 437 kts | 303° |
| 2026-05-08 16:22 | 52.03750 | 6.08405 | 38105 ft | 436 kts | 303° |
| 2026-05-08 16:22 | 52.07247 | 6.00326 | 38106 ft | 436 kts | 303° |
| 2026-05-08 16:23 | 52.10637 | 5.92374 | 38104 ft | 436 kts | 303° |
| 2026-05-08 16:23 | 52.14069 | 5.84256 | 38120 ft | 436 kts | 302° |
| 2026-05-08 16:24 | 52.17512 | 5.76082 | 38110 ft | 436 kts | 302° |
| 2026-05-08 16:24 | 52.20937 | 5.67925 | 38105 ft | 436 kts | 302° |
| 2026-05-08 16:25 | 52.24366 | 5.59737 | 38105 ft | 436 kts | 302° |
| 2026-05-08 16:25 | 52.27783 | 5.51551 | 38106 ft | 436 kts | 302° |
| 2026-05-08 16:26 | 52.31198 | 5.43343 | 38106 ft | 436 kts | 302° |
| 2026-05-08 16:26 | 52.34603 | 5.35133 | 38103 ft | 436 kts | 302° |
| 2026-05-08 16:27 | 52.38003 | 5.26908 | 38104 ft | 436 kts | 302° |
| 2026-05-08 16:27 | 52.41393 | 5.18679 | 38116 ft | 435 kts | 302° |
| 2026-05-08 16:28 | 52.44774 | 5.10449 | 38104 ft | 435 kts | 302° |
| 2026-05-08 16:28 | 52.48126 | 5.02261 | 38106 ft | 435 kts | 302° |
| 2026-05-08 16:29 | 52.51418 | 4.94195 | 38105 ft | 434 kts | 302° |
| 2026-05-08 16:29 | 52.54777 | 4.85937 | 38106 ft | 434 kts | 302° |
| 2026-05-08 16:30 | 52.58120 | 4.77693 | 38112 ft | 433 kts | 302° |
| 2026-05-08 16:30 | 52.61459 | 4.69433 | 38112 ft | 433 kts | 302° |
| 2026-05-08 16:31 | 52.64779 | 4.61191 | 38115 ft | 433 kts | 302° |
| 2026-05-08 16:31 | 52.68100 | 4.52921 | 38127 ft | 432 kts | 302° |
| 2026-05-08 16:32 | 52.71415 | 4.44640 | 38125 ft | 432 kts | 302° |
| 2026-05-08 16:32 | 52.74701 | 4.36402 | 38115 ft | 432 kts | 301° |
| 2026-05-08 16:33 | 52.77733 | 4.27865 | 38117 ft | 431 kts | 297° |
| 2026-05-08 16:33 | 52.80612 | 4.19169 | 38126 ft | 431 kts | 297° |
| 2026-05-08 16:34 | 52.83498 | 4.10493 | 38126 ft | 431 kts | 298° |
| 2026-05-08 16:34 | 52.86405 | 4.01814 | 38133 ft | 431 kts | 298° |
| 2026-05-08 16:35 | 52.89255 | 3.93304 | 38130 ft | 431 kts | 298° |
| 2026-05-08 16:35 | 52.92152 | 3.84618 | 38135 ft | 431 kts | 298° |
| 2026-05-08 16:36 | 52.95042 | 3.75926 | 38156 ft | 430 kts | 297° |
| 2026-05-08 16:36 | 52.97929 | 3.67210 | 38147 ft | 431 kts | 297° |
| 2026-05-08 16:37 | 53.00805 | 3.58512 | 38146 ft | 431 kts | 297° |
| 2026-05-08 16:37 | 53.03674 | 3.49845 | 38142 ft | 430 kts | 297° |
| 2026-05-08 16:38 | 53.06562 | 3.41134 | 38141 ft | 430 kts | 297° |
| 2026-05-08 16:38 | 53.09413 | 3.32391 | 38131 ft | 429 kts | 294° |
| 2026-05-08 16:39 | 53.11177 | 3.23068 | 38137 ft | 427 kts | 282° |
| 2026-05-08 16:39 | 53.12408 | 3.13404 | 38130 ft | 427 kts | 282° |
| 2026-05-08 16:40 | 53.13650 | 3.03741 | 38134 ft | 427 kts | 282° |
| 2026-05-08 16:40 | 53.14881 | 2.94319 | 38147 ft | 427 kts | 282° |
| 2026-05-08 16:41 | 53.16154 | 2.84570 | 38140 ft | 428 kts | 282° |
| 2026-05-08 16:42 | 53.18039 | 2.70025 | 38145 ft | 428 kts | 282° |
| 2026-05-08 16:42 | 53.19279 | 2.60370 | 38137 ft | 429 kts | 282° |
| 2026-05-08 16:43 | 53.20520 | 2.50639 | 38143 ft | 429 kts | 282° |
| 2026-05-08 16:43 | 53.21748 | 2.40887 | 38138 ft | 429 kts | 282° |
| 2026-05-08 16:44 | 53.22963 | 2.31126 | 38134 ft | 429 kts | 281° |
| 2026-05-08 16:44 | 53.24170 | 2.21374 | 38150 ft | 429 kts | 281° |
| 2026-05-08 16:45 | 53.25369 | 2.11625 | 38137 ft | 429 kts | 281° |
| 2026-05-08 16:45 | 53.26361 | 2.03509 | 38138 ft | 428 kts | 281° |
| 2026-05-08 16:46 | 53.27709 | 1.92406 | 38136 ft | 427 kts | 281° |
| 2026-05-08 16:46 | 53.28880 | 1.82679 | 38133 ft | 426 kts | 281° |
| 2026-05-08 16:47 | 53.29846 | 1.74596 | 38138 ft | 426 kts | 281° |
| 2026-05-08 16:47 | 53.31000 | 1.64889 | 38130 ft | 425 kts | 281° |
| 2026-05-08 16:48 | 53.32145 | 1.55189 | 38127 ft | 425 kts | 281° |
| 2026-05-08 16:48 | 53.33356 | 1.45516 | 38129 ft | 424 kts | 283° |
| 2026-05-08 16:49 | 53.34778 | 1.35936 | 38139 ft | 424 kts | 283° |
| 2026-05-08 16:49 | 53.36207 | 1.26364 | 38128 ft | 424 kts | 283° |
| 2026-05-08 16:50 | 53.37604 | 1.16755 | 38134 ft | 424 kts | 283° |
| 2026-05-08 16:50 | 53.38979 | 1.07140 | 38129 ft | 424 kts | 283° |
| 2026-05-08 16:51 | 53.40305 | 0.97791 | 38137 ft | 424 kts | 283° |
| 2026-05-08 16:51 | 53.41669 | 0.88121 | 38127 ft | 423 kts | 283° |
| 2026-05-08 16:52 | 53.43008 | 0.78560 | 38118 ft | 423 kts | 283° |
| 2026-05-08 16:52 | 53.44346 | 0.68957 | 38116 ft | 422 kts | 283° |
| 2026-05-08 16:53 | 53.46333 | 0.54571 | 38119 ft | 421 kts | 282° |
| 2026-05-08 16:53 | 53.47641 | 0.45044 | 38128 ft | 421 kts | 282° |
| 2026-05-08 16:54 | 53.48296 | 0.40244 | 37988 ft | 422 kts | 282° |
| 2026-05-08 16:54 | 53.48952 | 0.35432 | 37691 ft | 420 kts | 282° |
| 2026-05-08 16:54 | 53.49603 | 0.30674 | 37420 ft | 416 kts | 282° |
| 2026-05-08 16:54 | 53.50248 | 0.25941 | 37153 ft | 414 kts | 282° |
| 2026-05-08 16:55 | 53.50890 | 0.21219 | 36889 ft | 414 kts | 282° |
| 2026-05-08 16:55 | 53.51530 | 0.16505 | 36624 ft | 412 kts | 282° |
| 2026-05-08 16:55 | 53.52164 | 0.11804 | 36366 ft | 411 kts | 282° |
| 2026-05-08 16:55 | 53.52785 | 0.07185 | 36115 ft | 410 kts | 282° |
| 2026-05-08 16:56 | 53.53403 | 0.02517 | 35858 ft | 408 kts | 282° |
| 2026-05-08 16:56 | 53.53990 | -0.01944 | 35621 ft | 407 kts | 282° |
| 2026-05-08 16:56 | 53.54599 | -0.06581 | 35371 ft | 406 kts | 282° |
| 2026-05-08 16:56 | 53.55205 | -0.11215 | 35125 ft | 405 kts | 282° |
| 2026-05-08 16:57 | 53.55809 | -0.15835 | 34882 ft | 403 kts | 282° |
| 2026-05-08 16:57 | 53.56408 | -0.20431 | 34686 ft | 404 kts | 282° |
| 2026-05-08 16:57 | 53.57012 | -0.25076 | 34440 ft | 407 kts | 281° |
| 2026-05-08 16:57 | 53.57614 | -0.29723 | 34202 ft | 405 kts | 281° |
| 2026-05-08 16:58 | 53.58202 | -0.34277 | 33945 ft | 403 kts | 281° |
| 2026-05-08 16:58 | 53.58799 | -0.38898 | 33669 ft | 404 kts | 281° |
| 2026-05-08 16:58 | 53.59395 | -0.43528 | 33399 ft | 406 kts | 281° |
| 2026-05-08 16:58 | 53.59994 | -0.48187 | 33127 ft | 407 kts | 281° |
| 2026-05-08 16:59 | 53.60591 | -0.52854 | 32860 ft | 408 kts | 281° |
| 2026-05-08 16:59 | 53.61188 | -0.57533 | 32597 ft | 410 kts | 281° |
| 2026-05-08 16:59 | 53.61785 | -0.62226 | 32332 ft | 411 kts | 281° |
| 2026-05-08 16:59 | 53.62385 | -0.66969 | 32129 ft | 415 kts | 281° |
| 2026-05-08 17:00 | 53.62990 | -0.71758 | 31864 ft | 419 kts | 281° |
| 2026-05-08 17:00 | 53.63595 | -0.76570 | 31604 ft | 419 kts | 281° |
| 2026-05-08 17:00 | 53.64200 | -0.81378 | 31352 ft | 420 kts | 281° |
| 2026-05-08 17:00 | 53.64795 | -0.86141 | 31105 ft | 422 kts | 281° |
| 2026-05-08 17:01 | 53.65402 | -0.91006 | 30864 ft | 423 kts | 281° |
| 2026-05-08 17:01 | 53.66006 | -0.95869 | 30611 ft | 425 kts | 281° |
| 2026-05-08 17:01 | 53.66583 | -1.00528 | 30383 ft | 426 kts | 281° |
| 2026-05-08 17:01 | 53.67190 | -1.05431 | 30131 ft | 427 kts | 280° |
| 2026-05-08 17:02 | 53.67794 | -1.10332 | 29851 ft | 428 kts | 280° |
| 2026-05-08 17:02 | 53.68399 | -1.15264 | 29565 ft | 430 kts | 280° |
| 2026-05-08 17:02 | 53.68998 | -1.20158 | 29289 ft | 431 kts | 280° |
| 2026-05-08 17:02 | 53.69603 | -1.25117 | 29004 ft | 432 kts | 280° |
| 2026-05-08 17:03 | 53.70208 | -1.30092 | 28722 ft | 433 kts | 280° |
| 2026-05-08 17:03 | 53.70811 | -1.35071 | 28456 ft | 434 kts | 280° |
| 2026-05-08 17:03 | 53.71778 | -1.39935 | 28219 ft | 440 kts | 295° |
| 2026-05-08 17:03 | 53.73532 | -1.44226 | 27981 ft | 447 kts | 308° |
| 2026-05-08 17:04 | 53.75872 | -1.47711 | 27731 ft | 455 kts | 323° |
| 2026-05-08 17:04 | 53.78582 | -1.50523 | 27530 ft | 458 kts | 325° |
| 2026-05-08 17:04 | 53.81336 | -1.53254 | 27261 ft | 459 kts | 326° |
| 2026-05-08 17:04 | 53.84099 | -1.55982 | 26999 ft | 460 kts | 326° |
| 2026-05-08 17:05 | 53.86857 | -1.58735 | 26753 ft | 462 kts | 325° |
| 2026-05-08 17:05 | 53.89596 | -1.61505 | 26556 ft | 464 kts | 325° |
| 2026-05-08 17:05 | 53.92362 | -1.64333 | 26310 ft | 464 kts | 325° |
| 2026-05-08 17:05 | 53.95133 | -1.67184 | 26048 ft | 465 kts | 325° |
| 2026-05-08 17:06 | 53.97895 | -1.70035 | 25795 ft | 464 kts | 325° |
| 2026-05-08 17:06 | 54.00640 | -1.72871 | 25561 ft | 463 kts | 325° |
| 2026-05-08 17:06 | 54.03388 | -1.75716 | 25313 ft | 462 kts | 325° |
| 2026-05-08 17:06 | 54.06125 | -1.78549 | 25067 ft | 453 kts | 325° |
| 2026-05-08 17:07 | 54.08767 | -1.81283 | 24816 ft | 436 kts | 325° |
| 2026-05-08 17:07 | 54.11320 | -1.83916 | 24578 ft | 426 kts | 327° |
| 2026-05-08 17:07 | 54.14094 | -1.85725 | 24323 ft | 433 kts | 346° |
| 2026-05-08 17:07 | 54.17128 | -1.85953 | 24101 ft | 441 kts | 4° |
| 2026-05-08 17:08 | 54.20153 | -1.85088 | 23694 ft | 439 kts | 8° |
| 2026-05-08 17:08 | 54.23108 | -1.84087 | 22544 ft | 437 kts | 9° |
| 2026-05-08 17:08 | 54.26090 | -1.83054 | 21255 ft | 435 kts | 9° |
| 2026-05-08 17:08 | 54.29046 | -1.82059 | 20039 ft | 432 kts | 9° |
| 2026-05-08 17:09 | 54.31988 | -1.81104 | 18918 ft | 428 kts | 8° |
| 2026-05-08 17:09 | 54.34903 | -1.80181 | 17733 ft | 423 kts | 8° |
| 2026-05-08 17:09 | 54.37773 | -1.79279 | 16534 ft | 417 kts | 9° |
| 2026-05-08 17:09 | 54.40606 | -1.78387 | 15371 ft | 410 kts | 9° |
| 2026-05-08 17:10 | 54.43391 | -1.77508 | 14286 ft | 403 kts | 9° |
| 2026-05-08 17:10 | 54.46119 | -1.76645 | 13378 ft | 392 kts | 10° |
| 2026-05-08 17:10 | 54.48739 | -1.75814 | 12915 ft | 371 kts | 9° |
| 2026-05-08 17:10 | 54.51211 | -1.75028 | 12498 ft | 354 kts | 9° |
| 2026-05-08 17:11 | 54.53613 | -1.74265 | 12155 ft | 354 kts | 9° |
| 2026-05-08 17:11 | 54.56021 | -1.73500 | 11609 ft | 347 kts | 9° |
| 2026-05-08 17:11 | 54.58313 | -1.72769 | 11190 ft | 333 kts | 9° |
| 2026-05-08 17:11 | 54.60552 | -1.72055 | 10788 ft | 321 kts | 9° |
| 2026-05-08 17:12 | 54.62729 | -1.71362 | 10419 ft | 314 kts | 9° |
| 2026-05-08 17:12 | 54.64860 | -1.70674 | 10032 ft | 308 kts | 9° |
| 2026-05-08 17:12 | 54.66908 | -1.70020 | 10039 ft | 291 kts | 8° |
| 2026-05-08 17:12 | 54.68914 | -1.69511 | 9404 ft | 295 kts | 8° |
| 2026-05-08 17:13 | 54.70899 | -1.68699 | 8940 ft | 291 kts | 17° |
| 2026-05-08 17:13 | 54.72775 | -1.67596 | 8582 ft | 285 kts | 19° |
| 2026-05-08 17:13 | 54.74619 | -1.66461 | 8256 ft | 276 kts | 18° |
| 2026-05-08 17:13 | 54.76408 | -1.65363 | 7938 ft | 268 kts | 18° |
| 2026-05-08 17:14 | 54.78145 | -1.64309 | 7643 ft | 260 kts | 18° |
| 2026-05-08 17:14 | 54.79836 | -1.63294 | 7355 ft | 254 kts | 18° |
| 2026-05-08 17:14 | 54.81495 | -1.62262 | 7090 ft | 254 kts | 24° |
| 2026-05-08 17:14 | 54.82924 | -1.60442 | 6831 ft | 254 kts | 43° |
| 2026-05-08 17:15 | 54.84149 | -1.58343 | 6534 ft | 248 kts | 45° |
| 2026-05-08 17:15 | 54.85345 | -1.56240 | 6216 ft | 241 kts | 44° |
| 2026-05-08 17:15 | 54.86499 | -1.54186 | 5943 ft | 233 kts | 45° |
| 2026-05-08 17:15 | 54.87600 | -1.52218 | 5733 ft | 223 kts | 45° |
| 2026-05-08 17:16 | 54.88657 | -1.50326 | 5530 ft | 214 kts | 45° |
| 2026-05-08 17:16 | 54.89687 | -1.48484 | 5353 ft | 210 kts | 45° |
| 2026-05-08 17:16 | 54.90688 | -1.46691 | 5186 ft | 204 kts | 45° |
| 2026-05-08 17:16 | 54.91673 | -1.44931 | 5022 ft | 201 kts | 45° |
| 2026-05-08 17:17 | 54.92631 | -1.43206 | 4872 ft | 197 kts | 46° |
| 2026-05-08 17:17 | 54.93441 | -1.41302 | 4745 ft | 194 kts | 56° |
| 2026-05-08 17:17 | 54.94184 | -1.39394 | 4648 ft | 190 kts | 55° |
| 2026-05-08 17:17 | 54.94927 | -1.37513 | 4571 ft | 189 kts | 55° |
| 2026-05-08 17:18 | 54.95676 | -1.35619 | 4517 ft | 191 kts | 55° |
| 2026-05-08 17:18 | 54.96522 | -1.33834 | 4462 ft | 192 kts | 34° |
| 2026-05-08 17:18 | 54.97759 | -1.33070 | 4442 ft | 190 kts | 8° |
| 2026-05-08 17:18 | 54.99072 | -1.32623 | 4316 ft | 194 kts | 11° |
| 2026-05-08 17:19 | 55.00395 | -1.32249 | 4179 ft | 193 kts | 0° |
| 2026-05-08 17:19 | 55.01720 | -1.32182 | 4047 ft | 189 kts | 359° |
| 2026-05-08 17:19 | 55.02980 | -1.32639 | 3917 ft | 184 kts | 333° |
| 2026-05-08 17:19 | 55.04154 | -1.33552 | 3775 ft | 186 kts | 334° |
| 2026-05-08 17:20 | 55.05344 | -1.34411 | 3641 ft | 188 kts | 335° |
| 2026-05-08 17:20 | 55.06548 | -1.35274 | 3517 ft | 183 kts | 335° |
| 2026-05-08 17:20 | 55.07704 | -1.36099 | 3439 ft | 175 kts | 335° |
| 2026-05-08 17:20 | 55.08806 | -1.36883 | 3355 ft | 167 kts | 335° |
| 2026-05-08 17:21 | 55.09748 | -1.37972 | 3271 ft | 164 kts | 303° |
| 2026-05-08 17:21 | 55.10322 | -1.39797 | 3264 ft | 183 kts | 296° |
| 2026-05-08 17:21 | 55.10770 | -1.41845 | 3116 ft | 178 kts | 270° |
| 2026-05-08 17:21 | 55.10418 | -1.43779 | 3028 ft | 162 kts | 243° |
| 2026-05-08 17:22 | 55.10015 | -1.45580 | 2962 ft | 161 kts | 249° |
| 2026-05-08 17:22 | 55.09560 | -1.47363 | 2752 ft | 159 kts | 244° |
| 2026-05-08 17:22 | 55.09090 | -1.49076 | 2570 ft | 153 kts | 244° |
| 2026-05-08 17:22 | 55.08636 | -1.50767 | 2352 ft | 153 kts | 244° |
| 2026-05-08 17:23 | 55.08190 | -1.52441 | 2144 ft | 155 kts | 243° |
| 2026-05-08 17:23 | 55.07734 | -1.54152 | 1930 ft | 155 kts | 243° |
| 2026-05-08 17:23 | 55.07279 | -1.55859 | 1725 ft | 154 kts | 243° |
| 2026-05-08 17:23 | 55.06829 | -1.57548 | 1524 ft | 153 kts | 243° |
| 2026-05-08 17:24 | 55.06383 | -1.59227 | 1321 ft | 151 kts | 242° |
| 2026-05-08 17:24 | 55.05937 | -1.60903 | 1121 ft | 153 kts | 243° |
| 2026-05-08 17:24 | 55.05494 | -1.62572 | 908 ft | 150 kts | 243° |
| 2026-05-08 17:24 | 55.05051 | -1.64217 | 733 ft | 148 kts | 245° |
| 2026-05-08 17:25 | 55.04612 | -1.65870 | 502 ft | 150 kts | 245° |
| 2026-05-08 17:25 | 55.04177 | -1.67517 | 278 ft | 148 kts | 245° |
| 2026-05-08 17:25 | 55.03780 | -1.69028 | 252 ft | 117 kts | 245° |
| 2026-05-08 17:25 | 55.03528 | -1.69975 | 258 ft | 55 kts | 245° |
| 2026-05-08 17:26 | 55.03432 | -1.70337 | 260 ft | 21 kts | 245° |
| 2026-05-08 17:26 | 55.03391 | -1.70516 | 260 ft | 14 kts | 263° |
| 2026-05-08 17:26 | 55.03437 | -1.70642 | 260 ft | 13 kts | 339° |
| 2026-05-08 17:26 | 55.03526 | -1.70646 | 260 ft | 13 kts | 2° |
| 2026-05-08 17:27 | 55.03591 | -1.70573 | 261 ft | 12 kts | 75° |
| 2026-05-08 17:27 | 55.03626 | -1.70445 | 260 ft | 10 kts | 33° |
| 2026-05-08 17:27 | 55.03685 | -1.70435 | 258 ft | 9 kts | 2° |
| 2026-05-08 17:27 | 55.03699 | -1.70448 | 257 ft | 2 kts | 307° |
| 2026-05-08 17:28 | 55.03702 | -1.70472 | 257 ft | 3 kts | 278° |
| 2026-05-08 17:28 | 55.03700 | -1.70528 | 258 ft | 3 kts | 262° |
| 2026-05-08 17:28 | 55.03697 | -1.70557 | 258 ft | 0 kts | 263° |
| 2026-05-08 17:28 | 55.03697 | -1.70562 | 258 ft | 2 kts | 263° |
| 2026-05-08 17:29 | 55.03697 | -1.70568 | 258 ft | 0 kts | 263° |